sensor_id;sensor_type;location;lat;lon;timestamp;P1;durP1;ratioP1;P2;durP2;ratioP2
5831;SDS011;50943;51.448;7.646;2023-12-07T00:00:10;59.30;;;24.57;;
5831;SDS011;50943;51.448;7.646;2023-12-07T00:02:39;68.63;;;25.20;;
5831;SDS011;50943;51.448;7.646;2023-12-07T00:05:07;63.57;;;24.00;;
5831;SDS011;50943;51.448;7.646;2023-12-07T00:07:35;69.47;;;25.20;;
5831;SDS011;50943;51.448;7.646;2023-12-07T00:10:04;63.53;;;25.80;;
5831;SDS011;50943;51.448;7.646;2023-12-07T00:12:31;57.87;;;23.10;;
5831;SDS011;50943;51.448;7.646;2023-12-07T00:14:58;60.00;;;23.23;;
5831;SDS011;50943;51.448;7.646;2023-12-07T00:17:24;58.13;;;24.40;;
5831;SDS011;50943;51.448;7.646;2023-12-07T00:19:51;58.07;;;23.40;;
5831;SDS011;50943;51.448;7.646;2023-12-07T00:22:18;61.07;;;25.17;;
5831;SDS011;50943;51.448;7.646;2023-12-07T00:24:45;54.70;;;23.20;;
5831;SDS011;50943;51.448;7.646;2023-12-07T00:27:13;54.67;;;22.80;;
5831;SDS011;50943;51.448;7.646;2023-12-07T00:29:39;61.50;;;24.27;;
5831;SDS011;50943;51.448;7.646;2023-12-07T00:32:06;51.97;;;22.50;;
5831;SDS011;50943;51.448;7.646;2023-12-07T00:34:32;63.30;;;23.77;;
5831;SDS011;50943;51.448;7.646;2023-12-07T00:36:59;64.10;;;24.53;;
5831;SDS011;50943;51.448;7.646;2023-12-07T00:39:25;61.73;;;22.00;;
5831;SDS011;50943;51.448;7.646;2023-12-07T00:41:52;53.13;;;22.50;;
5831;SDS011;50943;51.448;7.646;2023-12-07T00:44:19;54.50;;;23.20;;
5831;SDS011;50943;51.448;7.646;2023-12-07T00:46:46;55.67;;;21.63;;
5831;SDS011;50943;51.448;7.646;2023-12-07T00:49:12;64.83;;;22.47;;
5831;SDS011;50943;51.448;7.646;2023-12-07T00:51:39;64.60;;;22.80;;
5831;SDS011;50943;51.448;7.646;2023-12-07T00:54:05;58.60;;;22.37;;
5831;SDS011;50943;51.448;7.646;2023-12-07T00:56:32;62.07;;;23.70;;
5831;SDS011;50943;51.448;7.646;2023-12-07T00:58:59;62.00;;;22.23;;
5831;SDS011;50943;51.448;7.646;2023-12-07T01:01:27;58.10;;;21.77;;
5831;SDS011;50943;51.448;7.646;2023-12-07T01:03:55;60.17;;;22.20;;
5831;SDS011;50943;51.448;7.646;2023-12-07T01:06:22;67.73;;;21.83;;
5831;SDS011;50943;51.448;7.646;2023-12-07T01:08:48;52.90;;;20.57;;
5831;SDS011;50943;51.448;7.646;2023-12-07T01:11:15;50.53;;;20.23;;
5831;SDS011;50943;51.448;7.646;2023-12-07T01:13:43;56.97;;;19.37;;
5831;SDS011;50943;51.448;7.646;2023-12-07T01:16:09;55.60;;;20.57;;
5831;SDS011;50943;51.448;7.646;2023-12-07T01:18:37;54.13;;;20.57;;
5831;SDS011;50943;51.448;7.646;2023-12-07T01:21:04;52.03;;;20.07;;
5831;SDS011;50943;51.448;7.646;2023-12-07T01:23:32;54.67;;;20.63;;
5831;SDS011;50943;51.448;7.646;2023-12-07T01:25:58;54.13;;;21.17;;
5831;SDS011;50943;51.448;7.646;2023-12-07T01:28:27;54.20;;;21.50;;
5831;SDS011;50943;51.448;7.646;2023-12-07T01:30:53;51.47;;;20.10;;
5831;SDS011;50943;51.448;7.646;2023-12-07T01:33:20;51.70;;;20.17;;
5831;SDS011;50943;51.448;7.646;2023-12-07T01:35:48;47.17;;;19.77;;
5831;SDS011;50943;51.448;7.646;2023-12-07T01:38:15;53.70;;;18.27;;
5831;SDS011;50943;51.448;7.646;2023-12-07T01:40:41;50.07;;;19.60;;
5831;SDS011;50943;51.448;7.646;2023-12-07T01:43:08;49.13;;;17.70;;
5831;SDS011;50943;51.448;7.646;2023-12-07T01:45:34;52.37;;;18.73;;
5831;SDS011;50943;51.448;7.646;2023-12-07T01:48:01;48.70;;;18.80;;
5831;SDS011;50943;51.448;7.646;2023-12-07T01:50:30;53.97;;;18.80;;
5831;SDS011;50943;51.448;7.646;2023-12-07T01:53:01;51.40;;;19.40;;
5831;SDS011;50943;51.448;7.646;2023-12-07T01:55:28;51.47;;;18.00;;
5831;SDS011;50943;51.448;7.646;2023-12-07T01:57:56;45.83;;;19.50;;
5831;SDS011;50943;51.448;7.646;2023-12-07T02:00:22;57.53;;;21.77;;
5831;SDS011;50943;51.448;7.646;2023-12-07T02:02:48;51.37;;;19.30;;
5831;SDS011;50943;51.448;7.646;2023-12-07T02:05:16;56.00;;;18.70;;
5831;SDS011;50943;51.448;7.646;2023-12-07T02:07:42;54.57;;;20.37;;
5831;SDS011;50943;51.448;7.646;2023-12-07T02:10:11;52.20;;;20.53;;
5831;SDS011;50943;51.448;7.646;2023-12-07T02:12:38;49.87;;;18.23;;
5831;SDS011;50943;51.448;7.646;2023-12-07T02:15:05;51.13;;;19.73;;
5831;SDS011;50943;51.448;7.646;2023-12-07T02:17:34;55.63;;;20.80;;
5831;SDS011;50943;51.448;7.646;2023-12-07T02:20:04;51.80;;;19.97;;
5831;SDS011;50943;51.448;7.646;2023-12-07T02:22:36;57.97;;;21.50;;
5831;SDS011;50943;51.448;7.646;2023-12-07T02:25:05;57.20;;;20.57;;
5831;SDS011;50943;51.448;7.646;2023-12-07T02:27:38;52.37;;;20.20;;
5831;SDS011;50943;51.448;7.646;2023-12-07T02:30:06;53.10;;;21.67;;
5831;SDS011;50943;51.448;7.646;2023-12-07T02:32:34;57.90;;;20.23;;
5831;SDS011;50943;51.448;7.646;2023-12-07T02:35:00;57.97;;;21.80;;
5831;SDS011;50943;51.448;7.646;2023-12-07T02:37:27;55.23;;;19.80;;
5831;SDS011;50943;51.448;7.646;2023-12-07T02:39:55;51.40;;;19.40;;
5831;SDS011;50943;51.448;7.646;2023-12-07T02:42:21;58.67;;;18.80;;
5831;SDS011;50943;51.448;7.646;2023-12-07T02:44:51;55.60;;;21.83;;
5831;SDS011;50943;51.448;7.646;2023-12-07T02:47:18;57.83;;;19.83;;
5831;SDS011;50943;51.448;7.646;2023-12-07T02:49:45;55.07;;;17.37;;
5831;SDS011;50943;51.448;7.646;2023-12-07T02:52:11;57.73;;;21.17;;
5831;SDS011;50943;51.448;7.646;2023-12-07T02:54:38;56.40;;;18.60;;
5831;SDS011;50943;51.448;7.646;2023-12-07T02:57:04;62.47;;;20.83;;
5831;SDS011;50943;51.448;7.646;2023-12-07T02:59:31;58.27;;;20.23;;
5831;SDS011;50943;51.448;7.646;2023-12-07T03:01:59;52.60;;;18.40;;
5831;SDS011;50943;51.448;7.646;2023-12-07T03:04:25;48.33;;;18.00;;
5831;SDS011;50943;51.448;7.646;2023-12-07T03:06:52;52.80;;;18.83;;
5831;SDS011;50943;51.448;7.646;2023-12-07T03:09:19;66.63;;;20.53;;
5831;SDS011;50943;51.448;7.646;2023-12-07T03:11:45;61.60;;;21.60;;
5831;SDS011;50943;51.448;7.646;2023-12-07T03:14:12;68.63;;;20.80;;
5831;SDS011;50943;51.448;7.646;2023-12-07T03:16:38;56.33;;;19.10;;
5831;SDS011;50943;51.448;7.646;2023-12-07T03:19:06;69.57;;;18.40;;
5831;SDS011;50943;51.448;7.646;2023-12-07T03:21:33;62.87;;;21.63;;
5831;SDS011;50943;51.448;7.646;2023-12-07T03:24:00;51.33;;;19.77;;
5831;SDS011;50943;51.448;7.646;2023-12-07T03:26:26;51.40;;;19.27;;
5831;SDS011;50943;51.448;7.646;2023-12-07T03:28:53;49.77;;;17.83;;
5831;SDS011;50943;51.448;7.646;2023-12-07T03:31:19;52.53;;;19.37;;
5831;SDS011;50943;51.448;7.646;2023-12-07T03:33:46;58.50;;;19.90;;
5831;SDS011;50943;51.448;7.646;2023-12-07T03:36:14;60.90;;;18.50;;
5831;SDS011;50943;51.448;7.646;2023-12-07T03:38:40;54.10;;;17.70;;
5831;SDS011;50943;51.448;7.646;2023-12-07T03:41:07;54.73;;;20.10;;
5831;SDS011;50943;51.448;7.646;2023-12-07T03:43:33;54.10;;;18.47;;
5831;SDS011;50943;51.448;7.646;2023-12-07T03:46:02;54.60;;;17.00;;
5831;SDS011;50943;51.448;7.646;2023-12-07T03:48:32;54.03;;;18.40;;
5831;SDS011;50943;51.448;7.646;2023-12-07T03:50:59;61.90;;;19.33;;
5831;SDS011;50943;51.448;7.646;2023-12-07T03:53:27;55.40;;;19.70;;
5831;SDS011;50943;51.448;7.646;2023-12-07T03:55:54;49.70;;;17.23;;
5831;SDS011;50943;51.448;7.646;2023-12-07T03:58:21;47.87;;;16.87;;
5831;SDS011;50943;51.448;7.646;2023-12-07T04:00:47;48.67;;;18.50;;
5831;SDS011;50943;51.448;7.646;2023-12-07T04:03:14;46.40;;;16.00;;
5831;SDS011;50943;51.448;7.646;2023-12-07T04:05:41;67.83;;;17.97;;
5831;SDS011;50943;51.448;7.646;2023-12-07T04:08:08;53.23;;;16.50;;
5831;SDS011;50943;51.448;7.646;2023-12-07T04:10:35;50.20;;;18.03;;
5831;SDS011;50943;51.448;7.646;2023-12-07T04:13:02;60.20;;;18.20;;
5831;SDS011;50943;51.448;7.646;2023-12-07T04:15:29;60.50;;;17.00;;
5831;SDS011;50943;51.448;7.646;2023-12-07T04:17:55;53.67;;;16.90;;
5831;SDS011;50943;51.448;7.646;2023-12-07T04:20:22;58.27;;;17.87;;
5831;SDS011;50943;51.448;7.646;2023-12-07T04:22:48;51.23;;;16.87;;
5831;SDS011;50943;51.448;7.646;2023-12-07T04:25:15;46.63;;;15.43;;
5831;SDS011;50943;51.448;7.646;2023-12-07T04:27:42;52.97;;;17.60;;
5831;SDS011;50943;51.448;7.646;2023-12-07T04:30:09;55.17;;;18.47;;
5831;SDS011;50943;51.448;7.646;2023-12-07T04:32:37;56.87;;;18.57;;
5831;SDS011;50943;51.448;7.646;2023-12-07T04:35:05;59.10;;;16.03;;
5831;SDS011;50943;51.448;7.646;2023-12-07T04:37:32;54.17;;;17.70;;
5831;SDS011;50943;51.448;7.646;2023-12-07T04:39:58;52.73;;;16.57;;
5831;SDS011;50943;51.448;7.646;2023-12-07T04:42:25;47.03;;;16.27;;
5831;SDS011;50943;51.448;7.646;2023-12-07T04:44:53;44.83;;;15.50;;
5831;SDS011;50943;51.448;7.646;2023-12-07T04:47:19;56.20;;;16.50;;
5831;SDS011;50943;51.448;7.646;2023-12-07T04:49:46;61.97;;;15.30;;
5831;SDS011;50943;51.448;7.646;2023-12-07T04:52:13;57.90;;;16.87;;
5831;SDS011;50943;51.448;7.646;2023-12-07T04:54:39;50.63;;;17.10;;
5831;SDS011;50943;51.448;7.646;2023-12-07T04:57:07;43.93;;;16.73;;
5831;SDS011;50943;51.448;7.646;2023-12-07T04:59:34;49.70;;;16.97;;
5831;SDS011;50943;51.448;7.646;2023-12-07T05:02:02;44.60;;;15.90;;
5831;SDS011;50943;51.448;7.646;2023-12-07T05:04:29;43.70;;;15.80;;
5831;SDS011;50943;51.448;7.646;2023-12-07T05:06:55;40.57;;;14.80;;
5831;SDS011;50943;51.448;7.646;2023-12-07T05:09:23;40.10;;;15.50;;
5831;SDS011;50943;51.448;7.646;2023-12-07T05:11:51;39.00;;;15.43;;
5831;SDS011;50943;51.448;7.646;2023-12-07T05:14:17;40.30;;;14.67;;
5831;SDS011;50943;51.448;7.646;2023-12-07T05:16:44;40.13;;;14.57;;
5831;SDS011;50943;51.448;7.646;2023-12-07T05:19:12;49.13;;;15.63;;
5831;SDS011;50943;51.448;7.646;2023-12-07T05:21:38;37.47;;;14.87;;
5831;SDS011;50943;51.448;7.646;2023-12-07T05:24:05;43.60;;;15.67;;
5831;SDS011;50943;51.448;7.646;2023-12-07T05:26:34;47.80;;;15.50;;
5831;SDS011;50943;51.448;7.646;2023-12-07T05:29:01;47.73;;;15.47;;
5831;SDS011;50943;51.448;7.646;2023-12-07T05:31:28;38.70;;;14.47;;
5831;SDS011;50943;51.448;7.646;2023-12-07T05:33:54;41.03;;;14.53;;
5831;SDS011;50943;51.448;7.646;2023-12-07T05:36:22;42.87;;;16.47;;
5831;SDS011;50943;51.448;7.646;2023-12-07T05:38:49;38.10;;;14.83;;
5831;SDS011;50943;51.448;7.646;2023-12-07T05:41:15;44.73;;;15.57;;
5831;SDS011;50943;51.448;7.646;2023-12-07T05:43:42;46.00;;;16.00;;
5831;SDS011;50943;51.448;7.646;2023-12-07T05:46:08;40.57;;;15.20;;
5831;SDS011;50943;51.448;7.646;2023-12-07T05:48:35;40.77;;;14.63;;
5831;SDS011;50943;51.448;7.646;2023-12-07T05:51:01;39.13;;;15.40;;
5831;SDS011;50943;51.448;7.646;2023-12-07T05:53:30;44.90;;;16.50;;
5831;SDS011;50943;51.448;7.646;2023-12-07T05:55:57;45.60;;;16.20;;
5831;SDS011;50943;51.448;7.646;2023-12-07T05:58:24;50.13;;;16.17;;
5831;SDS011;50943;51.448;7.646;2023-12-07T06:00:50;42.87;;;14.47;;
5831;SDS011;50943;51.448;7.646;2023-12-07T06:03:17;44.13;;;15.00;;
5831;SDS011;50943;51.448;7.646;2023-12-07T06:05:43;40.10;;;14.70;;
5831;SDS011;50943;51.448;7.646;2023-12-07T06:08:11;39.90;;;14.30;;
5831;SDS011;50943;51.448;7.646;2023-12-07T06:10:39;48.10;;;16.90;;
5831;SDS011;50943;51.448;7.646;2023-12-07T06:13:06;52.97;;;17.20;;
5831;SDS011;50943;51.448;7.646;2023-12-07T06:15:33;40.17;;;15.30;;
5831;SDS011;50943;51.448;7.646;2023-12-07T06:17:59;43.27;;;17.13;;
5831;SDS011;50943;51.448;7.646;2023-12-07T06:20:26;46.07;;;16.03;;
5831;SDS011;50943;51.448;7.646;2023-12-07T06:22:53;40.87;;;15.30;;
5831;SDS011;50943;51.448;7.646;2023-12-07T06:25:19;39.73;;;15.57;;
5831;SDS011;50943;51.448;7.646;2023-12-07T06:27:49;41.87;;;14.67;;
5831;SDS011;50943;51.448;7.646;2023-12-07T06:30:16;46.97;;;15.37;;
5831;SDS011;50943;51.448;7.646;2023-12-07T06:32:43;40.60;;;14.97;;
5831;SDS011;50943;51.448;7.646;2023-12-07T06:35:11;43.40;;;15.80;;
5831;SDS011;50943;51.448;7.646;2023-12-07T06:37:37;41.57;;;14.63;;
5831;SDS011;50943;51.448;7.646;2023-12-07T06:40:05;37.13;;;15.50;;
5831;SDS011;50943;51.448;7.646;2023-12-07T06:42:34;41.03;;;16.00;;
5831;SDS011;50943;51.448;7.646;2023-12-07T06:45:02;51.27;;;14.80;;
5831;SDS011;50943;51.448;7.646;2023-12-07T06:47:30;44.47;;;14.77;;
5831;SDS011;50943;51.448;7.646;2023-12-07T06:49:56;41.53;;;14.60;;
5831;SDS011;50943;51.448;7.646;2023-12-07T06:52:23;42.00;;;15.27;;
5831;SDS011;50943;51.448;7.646;2023-12-07T06:54:50;45.30;;;15.40;;
5831;SDS011;50943;51.448;7.646;2023-12-07T06:57:17;49.70;;;16.50;;
5831;SDS011;50943;51.448;7.646;2023-12-07T06:59:43;44.53;;;15.97;;
5831;SDS011;50943;51.448;7.646;2023-12-07T07:02:11;49.03;;;15.87;;
5831;SDS011;50943;51.448;7.646;2023-12-07T07:04:38;46.13;;;17.77;;
5831;SDS011;50943;51.448;7.646;2023-12-07T07:07:04;47.67;;;16.67;;
5831;SDS011;50943;51.448;7.646;2023-12-07T07:09:31;50.03;;;16.77;;
5831;SDS011;50943;51.448;7.646;2023-12-07T07:11:58;55.90;;;16.40;;
5831;SDS011;50943;51.448;7.646;2023-12-07T07:14:24;45.27;;;18.40;;
5831;SDS011;50943;51.448;7.646;2023-12-07T07:16:51;55.43;;;18.60;;
5831;SDS011;50943;51.448;7.646;2023-12-07T07:19:19;62.03;;;19.30;;
5831;SDS011;50943;51.448;7.646;2023-12-07T07:21:46;55.53;;;18.10;;
5831;SDS011;50943;51.448;7.646;2023-12-07T07:24:12;56.67;;;19.20;;
5831;SDS011;50943;51.448;7.646;2023-12-07T07:26:39;58.97;;;19.47;;
5831;SDS011;50943;51.448;7.646;2023-12-07T07:29:05;64.00;;;22.13;;
5831;SDS011;50943;51.448;7.646;2023-12-07T07:31:32;57.40;;;19.10;;
5831;SDS011;50943;51.448;7.646;2023-12-07T07:33:59;57.33;;;20.60;;
5831;SDS011;50943;51.448;7.646;2023-12-07T07:36:27;49.50;;;17.67;;
5831;SDS011;50943;51.448;7.646;2023-12-07T07:38:54;57.00;;;18.37;;
5831;SDS011;50943;51.448;7.646;2023-12-07T07:41:20;54.40;;;18.10;;
5831;SDS011;50943;51.448;7.646;2023-12-07T07:43:47;55.50;;;19.03;;
5831;SDS011;50943;51.448;7.646;2023-12-07T07:46:13;51.90;;;18.80;;
5831;SDS011;50943;51.448;7.646;2023-12-07T07:48:43;58.80;;;19.20;;
5831;SDS011;50943;51.448;7.646;2023-12-07T07:51:09;50.17;;;17.30;;
5831;SDS011;50943;51.448;7.646;2023-12-07T07:53:37;53.13;;;16.63;;
5831;SDS011;50943;51.448;7.646;2023-12-07T07:56:04;48.80;;;17.10;;
5831;SDS011;50943;51.448;7.646;2023-12-07T07:58:30;48.37;;;17.30;;
5831;SDS011;50943;51.448;7.646;2023-12-07T08:00:57;53.90;;;17.00;;
5831;SDS011;50943;51.448;7.646;2023-12-07T08:03:23;51.30;;;18.47;;
5831;SDS011;50943;51.448;7.646;2023-12-07T08:05:50;46.80;;;18.50;;
5831;SDS011;50943;51.448;7.646;2023-12-07T08:08:16;49.13;;;17.90;;
5831;SDS011;50943;51.448;7.646;2023-12-07T08:10:44;51.10;;;17.30;;
5831;SDS011;50943;51.448;7.646;2023-12-07T08:13:11;48.83;;;16.53;;
5831;SDS011;50943;51.448;7.646;2023-12-07T08:15:38;57.87;;;17.23;;
5831;SDS011;50943;51.448;7.646;2023-12-07T08:18:04;42.60;;;15.53;;
5831;SDS011;50943;51.448;7.646;2023-12-07T08:20:30;45.80;;;16.67;;
5831;SDS011;50943;51.448;7.646;2023-12-07T08:22:57;51.13;;;15.97;;
5831;SDS011;50943;51.448;7.646;2023-12-07T08:25:24;45.30;;;17.10;;
5831;SDS011;50943;51.448;7.646;2023-12-07T08:27:52;42.90;;;16.23;;
5831;SDS011;50943;51.448;7.646;2023-12-07T08:30:18;50.50;;;16.30;;
5831;SDS011;50943;51.448;7.646;2023-12-07T08:32:45;46.37;;;16.47;;
5831;SDS011;50943;51.448;7.646;2023-12-07T08:35:11;50.70;;;17.13;;
5831;SDS011;50943;51.448;7.646;2023-12-07T08:37:38;50.50;;;15.20;;
5831;SDS011;50943;51.448;7.646;2023-12-07T08:40:05;50.93;;;17.30;;
5831;SDS011;50943;51.448;7.646;2023-12-07T08:42:36;51.33;;;16.07;;
5831;SDS011;50943;51.448;7.646;2023-12-07T08:45:04;48.30;;;18.10;;
5831;SDS011;50943;51.448;7.646;2023-12-07T08:47:33;48.83;;;16.90;;
5831;SDS011;50943;51.448;7.646;2023-12-07T08:50:00;42.17;;;16.20;;
5831;SDS011;50943;51.448;7.646;2023-12-07T08:52:26;42.60;;;16.63;;
5831;SDS011;50943;51.448;7.646;2023-12-07T08:54:53;48.03;;;17.70;;
5831;SDS011;50943;51.448;7.646;2023-12-07T08:57:20;55.53;;;18.77;;
5831;SDS011;50943;51.448;7.646;2023-12-07T08:59:46;48.43;;;17.83;;
5831;SDS011;50943;51.448;7.646;2023-12-07T09:02:14;53.47;;;19.10;;
5831;SDS011;50943;51.448;7.646;2023-12-07T09:04:41;50.73;;;17.67;;
5831;SDS011;50943;51.448;7.646;2023-12-07T09:07:07;42.33;;;16.37;;
5831;SDS011;50943;51.448;7.646;2023-12-07T09:09:36;43.47;;;17.40;;
5831;SDS011;50943;51.448;7.646;2023-12-07T09:12:03;57.90;;;18.10;;
5831;SDS011;50943;51.448;7.646;2023-12-07T09:14:29;53.80;;;18.30;;
5831;SDS011;50943;51.448;7.646;2023-12-07T09:16:56;41.67;;;16.40;;
5831;SDS011;50943;51.448;7.646;2023-12-07T09:19:24;44.13;;;17.70;;
5831;SDS011;50943;51.448;7.646;2023-12-07T09:21:50;51.23;;;17.47;;
5831;SDS011;50943;51.448;7.646;2023-12-07T09:24:17;44.77;;;16.77;;
5831;SDS011;50943;51.448;7.646;2023-12-07T09:26:44;57.33;;;19.20;;
5831;SDS011;50943;51.448;7.646;2023-12-07T09:29:11;44.47;;;17.90;;
5831;SDS011;50943;51.448;7.646;2023-12-07T09:31:38;47.87;;;17.67;;
5831;SDS011;50943;51.448;7.646;2023-12-07T09:34:05;45.60;;;18.23;;
5831;SDS011;50943;51.448;7.646;2023-12-07T09:36:34;49.07;;;18.20;;
5831;SDS011;50943;51.448;7.646;2023-12-07T09:39:01;42.60;;;16.73;;
5831;SDS011;50943;51.448;7.646;2023-12-07T09:41:28;48.07;;;17.80;;
5831;SDS011;50943;51.448;7.646;2023-12-07T09:43:55;42.30;;;17.60;;
5831;SDS011;50943;51.448;7.646;2023-12-07T09:46:21;43.23;;;18.33;;
5831;SDS011;50943;51.448;7.646;2023-12-07T09:48:48;49.10;;;19.83;;
5831;SDS011;50943;51.448;7.646;2023-12-07T09:51:15;47.80;;;17.87;;
5831;SDS011;50943;51.448;7.646;2023-12-07T09:53:43;41.90;;;17.00;;
5831;SDS011;50943;51.448;7.646;2023-12-07T09:56:11;49.80;;;18.63;;
5831;SDS011;50943;51.448;7.646;2023-12-07T09:58:39;46.30;;;18.70;;
5831;SDS011;50943;51.448;7.646;2023-12-07T10:01:07;51.57;;;18.00;;
5831;SDS011;50943;51.448;7.646;2023-12-07T10:03:34;44.77;;;17.37;;
5831;SDS011;50943;51.448;7.646;2023-12-07T10:06:00;47.53;;;17.60;;
5831;SDS011;50943;51.448;7.646;2023-12-07T10:08:29;48.93;;;18.60;;
5831;SDS011;50943;51.448;7.646;2023-12-07T10:11:05;47.57;;;19.00;;
5831;SDS011;50943;51.448;7.646;2023-12-07T10:13:33;57.47;;;18.33;;
5831;SDS011;50943;51.448;7.646;2023-12-07T10:16:09;45.33;;;18.13;;
5831;SDS011;50943;51.448;7.646;2023-12-07T10:18:37;43.07;;;18.67;;
5831;SDS011;50943;51.448;7.646;2023-12-07T10:21:05;45.07;;;16.37;;
5831;SDS011;50943;51.448;7.646;2023-12-07T10:23:32;54.13;;;19.07;;
5831;SDS011;50943;51.448;7.646;2023-12-07T10:25:59;50.10;;;17.53;;
5831;SDS011;50943;51.448;7.646;2023-12-07T10:28:27;43.87;;;17.63;;
5831;SDS011;50943;51.448;7.646;2023-12-07T10:30:54;45.80;;;15.90;;
5831;SDS011;50943;51.448;7.646;2023-12-07T10:33:20;35.77;;;14.40;;
5831;SDS011;50943;51.448;7.646;2023-12-07T10:35:47;42.17;;;16.90;;
5831;SDS011;50943;51.448;7.646;2023-12-07T10:38:14;37.67;;;16.03;;
5831;SDS011;50943;51.448;7.646;2023-12-07T10:40:41;37.17;;;16.17;;
5831;SDS011;50943;51.448;7.646;2023-12-07T10:43:08;41.27;;;17.27;;
5831;SDS011;50943;51.448;7.646;2023-12-07T10:45:36;37.53;;;16.83;;
5831;SDS011;50943;51.448;7.646;2023-12-07T10:48:03;40.60;;;16.97;;
5831;SDS011;50943;51.448;7.646;2023-12-07T10:50:32;40.53;;;16.47;;
5831;SDS011;50943;51.448;7.646;2023-12-07T10:53:02;40.70;;;15.60;;
5831;SDS011;50943;51.448;7.646;2023-12-07T10:55:32;34.83;;;16.07;;
5831;SDS011;50943;51.448;7.646;2023-12-07T10:58:01;36.00;;;14.90;;
5831;SDS011;50943;51.448;7.646;2023-12-07T11:00:28;36.93;;;16.50;;
5831;SDS011;50943;51.448;7.646;2023-12-07T11:02:57;37.57;;;16.37;;
5831;SDS011;50943;51.448;7.646;2023-12-07T11:05:24;40.10;;;16.63;;
5831;SDS011;50943;51.448;7.646;2023-12-07T11:07:53;31.13;;;14.43;;
5831;SDS011;50943;51.448;7.646;2023-12-07T11:10:27;32.20;;;15.80;;
5831;SDS011;50943;51.448;7.646;2023-12-07T11:13:00;33.53;;;15.87;;
5831;SDS011;50943;51.448;7.646;2023-12-07T11:15:32;28.47;;;14.30;;
5831;SDS011;50943;51.448;7.646;2023-12-07T11:18:01;24.47;;;12.00;;
5831;SDS011;50943;51.448;7.646;2023-12-07T11:20:32;27.40;;;12.17;;
5831;SDS011;50943;51.448;7.646;2023-12-07T11:22:59;27.57;;;12.53;;
5831;SDS011;50943;51.448;7.646;2023-12-07T11:25:25;25.90;;;10.50;;
5831;SDS011;50943;51.448;7.646;2023-12-07T11:27:59;29.40;;;12.73;;
5831;SDS011;50943;51.448;7.646;2023-12-07T11:30:28;20.43;;;10.57;;
5831;SDS011;50943;51.448;7.646;2023-12-07T11:32:56;19.07;;;10.70;;
5831;SDS011;50943;51.448;7.646;2023-12-07T11:35:24;19.77;;;10.87;;
5831;SDS011;50943;51.448;7.646;2023-12-07T11:38:03;22.90;;;10.37;;
5831;SDS011;50943;51.448;7.646;2023-12-07T11:40:33;24.23;;;11.17;;
5831;SDS011;50943;51.448;7.646;2023-12-07T11:43:01;22.00;;;10.80;;
5831;SDS011;50943;51.448;7.646;2023-12-07T11:45:40;22.20;;;10.77;;
5831;SDS011;50943;51.448;7.646;2023-12-07T11:48:07;28.30;;;11.30;;
5831;SDS011;50943;51.448;7.646;2023-12-07T11:50:36;24.20;;;12.03;;
5831;SDS011;50943;51.448;7.646;2023-12-07T11:53:05;27.50;;;10.10;;
5831;SDS011;50943;51.448;7.646;2023-12-07T11:55:32;21.83;;;10.67;;
5831;SDS011;50943;51.448;7.646;2023-12-07T11:57:58;20.43;;;10.80;;
5831;SDS011;50943;51.448;7.646;2023-12-07T12:00:25;19.60;;;10.57;;
5831;SDS011;50943;51.448;7.646;2023-12-07T12:02:52;21.77;;;10.53;;
5831;SDS011;50943;51.448;7.646;2023-12-07T12:05:20;21.97;;;10.97;;
5831;SDS011;50943;51.448;7.646;2023-12-07T12:07:48;16.37;;;9.50;;
5831;SDS011;50943;51.448;7.646;2023-12-07T12:10:15;19.70;;;9.60;;
5831;SDS011;50943;51.448;7.646;2023-12-07T12:12:41;19.00;;;9.17;;
5831;SDS011;50943;51.448;7.646;2023-12-07T12:15:08;17.50;;;9.60;;
5831;SDS011;50943;51.448;7.646;2023-12-07T12:17:35;17.77;;;9.00;;
5831;SDS011;50943;51.448;7.646;2023-12-07T12:20:02;17.87;;;9.73;;
5831;SDS011;50943;51.448;7.646;2023-12-07T12:22:30;18.17;;;9.67;;
5831;SDS011;50943;51.448;7.646;2023-12-07T12:24:58;17.13;;;9.10;;
5831;SDS011;50943;51.448;7.646;2023-12-07T12:27:25;15.70;;;7.87;;
5831;SDS011;50943;51.448;7.646;2023-12-07T12:29:51;18.50;;;8.57;;
5831;SDS011;50943;51.448;7.646;2023-12-07T12:32:18;16.30;;;8.50;;
5831;SDS011;50943;51.448;7.646;2023-12-07T12:34:50;15.50;;;8.53;;
5831;SDS011;50943;51.448;7.646;2023-12-07T12:37:17;14.33;;;7.70;;
5831;SDS011;50943;51.448;7.646;2023-12-07T12:39:44;17.60;;;8.50;;
5831;SDS011;50943;51.448;7.646;2023-12-07T12:42:12;16.50;;;8.80;;
5831;SDS011;50943;51.448;7.646;2023-12-07T12:44:42;10.73;;;6.50;;
5831;SDS011;50943;51.448;7.646;2023-12-07T12:47:09;14.63;;;8.23;;
5831;SDS011;50943;51.448;7.646;2023-12-07T12:49:36;12.20;;;6.90;;
5831;SDS011;50943;51.448;7.646;2023-12-07T12:52:02;12.90;;;7.27;;
5831;SDS011;50943;51.448;7.646;2023-12-07T12:54:30;13.07;;;7.30;;
5831;SDS011;50943;51.448;7.646;2023-12-07T12:56:57;16.30;;;7.23;;
5831;SDS011;50943;51.448;7.646;2023-12-07T12:59:27;13.80;;;6.87;;
5831;SDS011;50943;51.448;7.646;2023-12-07T13:01:54;18.90;;;7.30;;
5831;SDS011;50943;51.448;7.646;2023-12-07T13:04:21;12.87;;;7.53;;
5831;SDS011;50943;51.448;7.646;2023-12-07T13:06:48;13.40;;;7.27;;
5831;SDS011;50943;51.448;7.646;2023-12-07T13:09:15;11.77;;;7.13;;
5831;SDS011;50943;51.448;7.646;2023-12-07T13:11:41;14.77;;;7.03;;
5831;SDS011;50943;51.448;7.646;2023-12-07T13:14:08;15.53;;;6.83;;
5831;SDS011;50943;51.448;7.646;2023-12-07T13:16:37;16.50;;;7.20;;
5831;SDS011;50943;51.448;7.646;2023-12-07T13:19:04;12.80;;;7.40;;
5831;SDS011;50943;51.448;7.646;2023-12-07T13:21:32;15.30;;;7.60;;
5831;SDS011;50943;51.448;7.646;2023-12-07T13:23:58;11.40;;;6.67;;
5831;SDS011;50943;51.448;7.646;2023-12-07T13:26:25;15.40;;;7.40;;
5831;SDS011;50943;51.448;7.646;2023-12-07T13:28:51;15.57;;;7.50;;
5831;SDS011;50943;51.448;7.646;2023-12-07T13:31:19;12.90;;;7.10;;
5831;SDS011;50943;51.448;7.646;2023-12-07T13:33:47;17.27;;;7.60;;
5831;SDS011;50943;51.448;7.646;2023-12-07T13:36:15;18.43;;;7.70;;
5831;SDS011;50943;51.448;7.646;2023-12-07T13:38:43;14.40;;;7.40;;
5831;SDS011;50943;51.448;7.646;2023-12-07T13:41:09;14.53;;;7.53;;
5831;SDS011;50943;51.448;7.646;2023-12-07T13:43:36;12.60;;;7.27;;
5831;SDS011;50943;51.448;7.646;2023-12-07T13:46:02;12.67;;;7.20;;
5831;SDS011;50943;51.448;7.646;2023-12-07T13:48:29;16.40;;;7.43;;
5831;SDS011;50943;51.448;7.646;2023-12-07T13:50:57;12.97;;;6.73;;
5831;SDS011;50943;51.448;7.646;2023-12-07T13:53:23;10.00;;;6.27;;
5831;SDS011;50943;51.448;7.646;2023-12-07T13:55:50;11.00;;;6.23;;
5831;SDS011;50943;51.448;7.646;2023-12-07T13:58:17;15.40;;;6.80;;
5831;SDS011;50943;51.448;7.646;2023-12-07T14:00:43;14.30;;;7.37;;
5831;SDS011;50943;51.448;7.646;2023-12-07T14:03:11;16.90;;;7.80;;
5831;SDS011;50943;51.448;7.646;2023-12-07T14:05:37;11.03;;;7.10;;
5831;SDS011;50943;51.448;7.646;2023-12-07T14:08:05;11.57;;;6.50;;
5831;SDS011;50943;51.448;7.646;2023-12-07T14:10:32;11.70;;;6.97;;
5831;SDS011;50943;51.448;7.646;2023-12-07T14:12:59;15.50;;;8.07;;
5831;SDS011;50943;51.448;7.646;2023-12-07T14:15:26;14.20;;;7.70;;
5831;SDS011;50943;51.448;7.646;2023-12-07T14:17:52;15.67;;;8.37;;
5831;SDS011;50943;51.448;7.646;2023-12-07T14:20:19;16.57;;;8.73;;
5831;SDS011;50943;51.448;7.646;2023-12-07T14:22:49;16.10;;;8.20;;
5831;SDS011;50943;51.448;7.646;2023-12-07T14:25:17;17.60;;;8.30;;
5831;SDS011;50943;51.448;7.646;2023-12-07T14:27:44;17.10;;;8.37;;
5831;SDS011;50943;51.448;7.646;2023-12-07T14:30:11;18.50;;;7.97;;
5831;SDS011;50943;51.448;7.646;2023-12-07T14:32:38;16.03;;;7.43;;
5831;SDS011;50943;51.448;7.646;2023-12-07T14:35:06;17.00;;;7.60;;